Time;durP1;ratioP1;P1;durP2;ratioP2;P2;SDS_P1;SDS_P2;PMS_P1;PMS_P2;Temp;Humidity;BMP_temperature;BMP_pressure;BME280_temperature;BME280_humidity;BME280_pressure;Samples;Min_cycle;Max_cycle;Signal;HPM_P1;HPM_P2
2022/07/18 00:02:15;;;;;;;7.50;3.30;;;15.60;95.00;;;;;;5027790;28;20542;-44
2022/07/18 00:04:41;;;;;;;3.30;2.50;;;15.50;95.30;;;;;;5004732;28;20057;-44
2022/07/18 00:07:10;;;;;;;5.97;2.58;;;15.60;95.10;;;;;;5004903;28;20026;-45
2022/07/18 00:09:36;;;;;;;6.18;2.60;;;15.60;95.20;;;;;;5006089;28;20068;-45
2022/07/18 00:12:02;;;;;;;3.65;2.70;;;15.60;95.30;;;;;;5006364;28;20429;-45
2022/07/18 00:14:27;;;;;;;4.97;2.75;;;15.50;95.50;;;;;;5004239;28;20033;-45
2022/07/18 00:16:53;;;;;;;6.75;3.00;;;15.50;95.90;;;;;;5006421;28;20469;-45
2022/07/18 00:19:19;;;;;;;6.15;2.65;;;15.40;96.20;;;;;;5020687;28;20032;-44
2022/07/18 00:21:44;;;;;;;3.38;2.50;;;15.30;96.40;;;;;;4992231;28;20026;-46
2022/07/18 00:24:10;;;;;;;5.68;2.40;;;15.30;96.60;;;;;;4986230;28;20030;-45
2022/07/18 00:26:35;;;;;;;2.83;2.30;;;15.20;96.70;;;;;;5009979;28;20135;-44
2022/07/18 00:29:01;;;;;;;3.33;2.55;;;15.20;97.50;;;;;;4986691;28;20581;-45
2022/07/18 00:31:26;;;;;;;8.55;3.10;;;15.10;97.70;;;;;;5034445;28;20016;-45
2022/07/18 00:33:52;;;;;;;4.97;2.55;;;15.10;97.70;;;;;;5076122;28;20024;-44
2022/07/18 00:36:17;;;;;;;6.28;3.00;;;15.10;97.80;;;;;;4984100;28;20031;-45
2022/07/18 00:38:43;;;;;;;6.45;3.22;;;15.10;97.70;;;;;;4986109;28;20031;-45
2022/07/18 00:41:08;;;;;;;5.95;3.20;;;15.20;97.90;;;;;;4984549;28;20289;-45
2022/07/18 00:43:34;;;;;;;6.97;3.50;;;15.10;98.00;;;;;;4986025;28;20094;-45
2022/07/18 00:45:59;;;;;;;3.05;2.55;;;15.20;98.20;;;;;;4985478;28;20031;-45
2022/07/18 00:48:25;;;;;;;7.07;3.17;;;15.00;98.50;;;;;;4986243;28;20275;-45
2022/07/18 00:50:51;;;;;;;3.53;2.50;;;15.00;98.80;;;;;;4986378;28;20388;-44
2022/07/18 00:53:17;;;;;;;3.97;2.95;;;15.00;98.80;;;;;;4985936;28;20030;-45
2022/07/18 00:55:44;;;;;;;5.05;2.72;;;15.00;98.90;;;;;;4985520;28;20045;-45
2022/07/18 00:58:11;;;;;;;4.28;2.53;;;14.90;99.20;;;;;;4991333;28;20390;-46
2022/07/18 01:03:21;;;;;;;4.40;2.90;;;14.80;99.90;;;;;;5005896;28;20041;-45
2022/07/18 01:05:46;;;;;;;4.90;2.83;;;14.70;99.90;;;;;;5003834;28;20388;-45
2022/07/18 01:08:12;;;;;;;5.72;2.60;;;14.70;99.90;;;;;;4995232;28;20031;-45
2022/07/18 01:10:37;;;;;;;7.22;2.90;;;14.70;99.90;;;;;;4986857;28;20035;-46
2022/07/18 01:13:03;;;;;;;3.55;2.75;;;14.60;99.90;;;;;;4989047;28;20113;-46
2022/07/18 01:15:29;;;;;;;3.10;2.78;;;14.60;99.90;;;;;;4987302;28;20023;-46
2022/07/18 01:17:54;;;;;;;3.83;3.00;;;14.60;99.90;;;;;;4989443;28;20034;-47
2022/07/18 01:20:20;;;;;;;4.43;2.60;;;14.50;99.90;;;;;;4989346;28;20034;-46
2022/07/18 01:22:45;;;;;;;4.55;2.58;;;14.40;99.90;;;;;;4989150;28;20026;-45
2022/07/18 01:25:12;;;;;;;4.95;2.75;;;14.40;99.90;;;;;;4988499;28;20030;-47
2022/07/18 01:27:38;;;;;;;4.03;2.60;;;14.50;99.90;;;;;;4990125;28;20402;-46
2022/07/18 01:30:05;;;;;;;5.07;2.60;;;14.50;99.90;;;;;;5006614;28;20038;-48
2022/07/18 01:32:30;;;;;;;3.53;2.42;;;14.50;99.90;;;;;;4989020;28;20610;-45
2022/07/18 01:34:56;;;;;;;7.35;2.65;;;14.50;99.90;;;;;;4988513;28;20019;-47
2022/07/18 01:37:21;;;;;;;6.60;2.80;;;14.50;99.90;;;;;;4988844;28;20019;-44
2022/07/18 01:39:48;;;;;;;4.15;2.65;;;14.50;99.90;;;;;;4987825;28;20026;-45
2022/07/18 01:42:14;;;;;;;3.40;2.78;;;14.40;99.90;;;;;;4989127;28;20140;-46
2022/07/18 01:44:40;;;;;;;5.85;2.45;;;14.30;99.90;;;;;;4988290;28;20087;-46
2022/07/18 01:47:08;;;;;;;4.22;2.45;;;14.30;99.90;;;;;;4988787;28;20030;-46
2022/07/18 01:49:33;;;;;;;5.53;2.92;;;14.40;99.90;;;;;;4989016;28;20522;-46
2022/07/18 01:52:00;;;;;;;5.53;2.95;;;14.20;99.90;;;;;;4988892;28;20035;-45
2022/07/18 01:54:28;;;;;;;10.52;2.80;;;14.20;99.90;;;;;;4988236;28;20035;-45
2022/07/18 01:56:55;;;;;;;4.93;2.80;;;14.20;99.90;;;;;;4988196;28;20091;-45
2022/07/18 01:59:21;;;;;;;5.25;2.70;;;14.10;99.90;;;;;;5033639;28;20024;-47
2022/07/18 02:01:46;;;;;;;4.43;2.70;;;14.10;99.90;;;;;;5011409;28;20070;-45
2022/07/18 02:04:12;;;;;;;5.15;2.80;;;14.10;99.90;;;;;;4987785;28;20089;-45
2022/07/18 02:06:38;;;;;;;3.80;2.83;;;14.10;99.90;;;;;;4988577;28;20434;-45
2022/07/18 02:09:06;;;;;;;4.85;3.00;;;14.10;99.90;;;;;;4988506;28;20030;-46
2022/07/18 02:11:31;;;;;;;5.13;2.90;;;14.10;99.90;;;;;;4988254;28;20408;-46
2022/07/18 02:13:57;;;;;;;3.65;2.72;;;14.10;99.90;;;;;;4987776;28;20053;-46
2022/07/18 02:16:22;;;;;;;3.63;2.90;;;14.10;99.90;;;;;;4986735;28;20026;-45
2022/07/18 02:18:48;;;;;;;4.45;2.70;;;14.00;99.90;;;;;;5030049;28;20640;-47
2022/07/18 02:21:13;;;;;;;3.67;2.67;;;14.00;99.90;;;;;;4987688;28;20083;-46
2022/07/18 02:23:40;;;;;;;3.75;3.22;;;14.00;99.90;;;;;;4988265;28;20083;-46
2022/07/18 02:26:07;;;;;;;4.70;3.13;;;14.00;99.90;;;;;;4995938;28;20437;-45
2022/07/18 02:28:33;;;;;;;4.03;3.40;;;14.00;99.90;;;;;;5002327;28;20511;-46
2022/07/18 02:30:58;;;;;;;5.90;3.60;;;14.00;99.90;;;;;;5000748;28;20068;-45
2022/07/18 02:33:24;;;;;;;4.88;3.20;;;14.00;99.90;;;;;;5007950;28;20030;-45
2022/07/18 02:35:50;;;;;;;6.07;3.40;;;14.00;99.90;;;;;;5007125;28;20037;-47
2022/07/18 02:38:16;;;;;;;5.40;2.60;;;14.00;99.90;;;;;;5012791;28;20015;-45
2022/07/18 02:40:41;;;;;;;9.05;3.15;;;13.90;99.90;;;;;;4989734;28;20088;-47
2022/07/18 02:43:07;;;;;;;4.95;3.72;;;13.90;99.90;;;;;;4987632;28;20376;-44
2022/07/18 02:45:32;;;;;;;5.35;2.88;;;14.00;99.90;;;;;;4987131;28;20057;-46
2022/07/18 02:47:58;;;;;;;7.82;2.88;;;13.90;99.90;;;;;;4987953;28;20030;-45
2022/07/18 02:50:23;;;;;;;7.47;3.20;;;13.90;99.90;;;;;;4988861;28;20027;-46
2022/07/18 02:52:50;;;;;;;6.75;3.30;;;13.80;99.90;;;;;;4988039;28;20026;-46
2022/07/18 02:55:16;;;;;;;3.20;2.50;;;13.80;99.90;;;;;;4988220;28;20515;-44
2022/07/18 02:57:42;;;;;;;6.47;2.80;;;13.70;99.90;;;;;;5021768;28;20036;-45
2022/07/18 03:00:11;;;;;;;5.65;3.22;;;13.60;99.90;;;;;;5000622;28;20179;-45
2022/07/18 03:02:37;;;;;;;4.50;2.63;;;13.60;99.90;;;;;;4986754;28;20406;-47
2022/07/18 03:05:04;;;;;;;6.13;3.03;;;13.50;99.90;;;;;;4976644;28;20455;-48
2022/07/18 03:07:29;;;;;;;3.35;3.05;;;13.50;99.90;;;;;;4986129;28;20400;-47
2022/07/18 03:09:55;;;;;;;5.25;2.88;;;13.50;99.90;;;;;;4985919;28;20048;-45
2022/07/18 03:12:21;;;;;;;6.82;3.40;;;13.40;99.90;;;;;;4987244;28;20193;-46
2022/07/18 03:14:47;;;;;;;5.20;3.10;;;13.40;99.90;;;;;;4985650;28;20300;-46
2022/07/18 03:17:12;;;;;;;3.95;2.60;;;13.40;99.90;;;;;;4986275;28;20089;-47
2022/07/18 03:19:38;;;;;;;3.70;2.20;;;13.40;99.90;;;;;;4987458;28;20618;-48
2022/07/18 03:22:04;;;;;;;5.47;2.80;;;13.30;99.90;;;;;;4987343;28;20038;-46
2022/07/18 03:24:30;;;;;;;4.10;2.90;;;13.30;99.90;;;;;;4987005;28;20177;-49
2022/07/18 03:26:56;;;;;;;3.90;2.70;;;13.20;99.90;;;;;;4987142;28;20030;-46
2022/07/18 03:29:21;;;;;;;4.93;3.22;;;13.20;99.90;;;;;;5033084;28;20380;-45
2022/07/18 03:31:47;;;;;;;5.32;3.88;;;13.30;99.90;;;;;;5010448;28;20554;-46
2022/07/18 03:34:13;;;;;;;5.47;3.00;;;13.30;99.90;;;;;;5003984;28;20038;-48
2022/07/18 03:36:39;;;;;;;5.03;2.88;;;13.20;99.90;;;;;;4990561;28;20026;-46
2022/07/18 03:39:06;;;;;;;6.60;3.35;;;13.20;99.90;;;;;;4981505;28;20083;-46
2022/07/18 03:41:32;;;;;;;4.05;2.88;;;13.20;99.90;;;;;;4987396;28;20396;-45
2022/07/18 03:44:07;;;;;;;5.90;3.10;;;13.30;99.90;;;;;;4985423;28;20038;-45
2022/07/18 03:46:33;;;;;;;8.43;2.85;;;13.40;99.90;;;;;;4987412;28;20271;-47
2022/07/18 03:48:59;;;;;;;5.13;3.22;;;13.40;99.90;;;;;;4987011;28;20069;-46
2022/07/18 03:51:25;;;;;;;7.80;3.35;;;13.40;99.90;;;;;;4986818;28;20038;-47
2022/07/18 03:53:50;;;;;;;8.38;3.28;;;13.40;99.90;;;;;;4986682;28;20387;-48
2022/07/18 03:56:17;;;;;;;3.72;2.97;;;13.40;99.90;;;;;;4985217;28;20200;-45
2022/07/18 03:58:43;;;;;;;4.63;2.70;;;13.40;99.90;;;;;;5004450;28;20041;-48
2022/07/18 04:01:09;;;;;;;3.97;2.80;;;13.40;99.90;;;;;;5031891;28;20022;-47
2022/07/18 04:03:34;;;;;;;5.22;2.88;;;13.50;99.90;;;;;;5006476;28;20395;-46
2022/07/18 04:06:00;;;;;;;3.90;2.60;;;13.40;99.90;;;;;;5005824;28;20044;-45
2022/07/18 04:08:26;;;;;;;7.38;3.33;;;13.40;99.90;;;;;;5003355;28;20039;-48
2022/07/18 04:10:51;;;;;;;4.43;2.85;;;13.40;99.90;;;;;;4977671;28;20045;-44
2022/07/18 04:13:17;;;;;;;4.32;2.45;;;13.40;99.90;;;;;;4975066;28;20399;-45
2022/07/18 04:15:42;;;;;;;6.63;2.95;;;13.40;99.90;;;;;;4974658;28;20501;-48
2022/07/18 04:18:09;;;;;;;6.85;3.00;;;13.50;99.90;;;;;;4978360;28;20057;-44
2022/07/18 04:20:36;;;;;;;6.20;3.05;;;13.60;99.90;;;;;;4986215;28;20525;-46
2022/07/18 04:23:04;;;;;;;3.97;2.90;;;13.60;99.90;;;;;;4986357;28;20026;-46
2022/07/18 04:25:41;;;;;;;5.75;3.10;;;13.70;99.90;;;;;;4985786;28;20026;-45
2022/07/18 04:28:09;;;;;;;4.82;2.40;;;13.80;99.90;;;;;;4991531;28;20033;-45
2022/07/18 04:30:35;;;;;;;3.95;2.97;;;13.80;99.90;;;;;;5038723;28;20120;-46
2022/07/18 04:33:04;;;;;;;4.32;2.95;;;13.90;99.90;;;;;;5004449;28;20033;-49
2022/07/18 04:35:30;;;;;;;3.80;2.85;;;13.90;99.90;;;;;;4979342;28;20038;-44
2022/07/18 04:37:55;;;;;;;5.30;3.10;;;14.00;99.90;;;;;;4984756;28;20064;-45
2022/07/18 04:40:21;;;;;;;5.25;2.90;;;14.00;99.90;;;;;;4985850;28;20080;-45
2022/07/18 04:42:47;;;;;;;3.83;2.67;;;14.00;99.90;;;;;;4984023;28;20027;-45
2022/07/18 04:45:13;;;;;;;4.47;3.00;;;14.10;99.90;;;;;;4986859;28;20044;-45
2022/07/18 04:47:39;;;;;;;3.03;2.50;;;14.20;99.90;;;;;;4989066;28;20452;-45
2022/07/18 04:50:05;;;;;;;4.68;3.05;;;14.20;99.90;;;;;;4988705;28;20030;-48
2022/07/18 04:52:43;;;;;;;6.93;3.15;;;14.30;99.90;;;;;;4986319;28;20058;-48
2022/07/18 04:55:10;;;;;;;4.05;2.85;;;14.30;99.90;;;;;;4987401;28;20068;-51
2022/07/18 04:57:36;;;;;;;4.05;3.00;;;14.40;99.90;;;;;;4998159;28;20306;-46
2022/07/18 05:00:08;;;;;;;4.30;2.88;;;14.40;99.90;;;;;;4994455;28;20476;-45
2022/07/18 05:02:34;;;;;;;3.78;2.63;;;14.50;99.90;;;;;;4983754;28;20113;-45
2022/07/18 05:04:59;;;;;;;5.20;2.67;;;14.60;99.90;;;;;;4987022;28;20106;-45
2022/07/18 05:07:25;;;;;;;3.90;2.38;;;14.60;99.90;;;;;;4980453;28;20030;-45
2022/07/18 05:09:50;;;;;;;4.38;2.45;;;14.70;99.90;;;;;;4977231;28;20092;-46
2022/07/18 05:12:18;;;;;;;4.50;2.58;;;14.80;99.90;;;;;;4978907;28;20030;-46
2022/07/18 05:14:44;;;;;;;7.60;2.88;;;14.90;99.90;;;;;;4973792;28;20019;-46
2022/07/18 05:17:09;;;;;;;4.68;2.50;;;15.00;99.90;;;;;;4969479;28;20492;-46
2022/07/18 05:19:35;;;;;;;6.40;2.50;;;15.10;99.90;;;;;;4970562;28;20042;-45
2022/07/18 05:22:00;;;;;;;4.70;2.83;;;15.30;99.90;;;;;;4970513;28;20035;-46
2022/07/18 05:24:27;;;;;;;4.95;2.60;;;15.30;99.90;;;;;;4982509;28;20054;-45
2022/07/18 05:26:52;;;;;;;6.13;2.53;;;15.50;99.90;;;;;;5007621;28;20052;-45
2022/07/18 05:29:18;;;;;;;3.72;2.65;;;15.60;99.90;;;;;;4993883;28;20060;-45
2022/07/18 05:31:43;;;;;;;5.32;2.92;;;15.70;99.90;;;;;;5039657;28;20523;-45
2022/07/18 05:34:09;;;;;;;8.70;2.30;;;15.80;99.90;;;;;;5025169;28;20166;-46
2022/07/18 05:36:34;;;;;;;3.40;2.22;;;15.90;99.90;;;;;;5019248;28;20025;-46
2022/07/18 05:39:01;;;;;;;5.10;2.22;;;16.00;99.90;;;;;;5004670;28;20472;-45
2022/07/18 05:41:26;;;;;;;3.78;2.10;;;16.00;99.90;;;;;;5038288;28;20447;-45
2022/07/18 05:43:52;;;;;;;6.28;3.30;;;16.10;99.90;;;;;;5008400;28;20134;-45
2022/07/18 05:46:17;;;;;;;7.05;2.88;;;16.30;99.90;;;;;;5006829;28;20045;-46
2022/07/18 05:48:43;;;;;;;7.40;3.05;;;16.30;99.90;;;;;;5012336;28;20025;-46
2022/07/18 05:51:10;;;;;;;5.35;2.83;;;16.50;99.90;;;;;;5033862;28;20033;-46
2022/07/18 05:53:35;;;;;;;4.57;2.70;;;16.60;99.90;;;;;;5008148;28;20037;-44
2022/07/18 05:56:01;;;;;;;5.75;2.95;;;16.60;99.90;;;;;;5006814;28;20023;-46
2022/07/18 05:58:26;;;;;;;7.15;3.42;;;16.70;99.90;;;;;;4992974;28;20019;-46
2022/07/18 06:00:52;;;;;;;6.28;3.20;;;16.80;99.90;;;;;;5020016;28;20225;-46
2022/07/18 06:03:17;;;;;;;4.57;3.03;;;17.00;99.90;;;;;;5028637;28;20033;-46
2022/07/18 06:05:42;;;;;;;5.40;3.25;;;17.10;99.90;;;;;;5007516;28;20102;-46
2022/07/18 06:08:08;;;;;;;4.65;3.00;;;17.10;99.90;;;;;;5026361;28;20395;-46
2022/07/18 06:10:33;;;;;;;8.98;3.40;;;17.30;99.90;;;;;;4988414;28;20381;-45
2022/07/18 06:12:59;;;;;;;5.45;3.28;;;17.30;99.90;;;;;;5000047;28;20345;-45
2022/07/18 06:15:25;;;;;;;4.60;3.33;;;17.50;99.90;;;;;;5007650;28;20277;-48
2022/07/18 06:17:51;;;;;;;7.57;3.40;;;17.60;99.90;;;;;;4988310;28;20029;-46
2022/07/18 06:20:17;;;;;;;5.05;3.08;;;17.80;99.90;;;;;;4988292;28;20025;-45
2022/07/18 06:22:43;;;;;;;8.27;3.22;;;17.90;99.80;;;;;;5010191;28;20034;-46
2022/07/18 06:25:09;;;;;;;7.72;2.92;;;18.00;99.30;;;;;;4987116;28;20061;-46
2022/07/18 06:27:35;;;;;;;4.07;2.63;;;18.20;99.20;;;;;;5014041;28;20026;-45
2022/07/18 06:30:04;;;;;;;3.10;2.53;;;18.30;98.60;;;;;;4992491;28;20117;-45
2022/07/18 06:32:30;;;;;;;6.57;3.25;;;18.50;98.80;;;;;;5007728;28;20034;-47
2022/07/18 06:34:55;;;;;;;4.30;2.50;;;18.60;97.90;;;;;;5006056;28;20464;-48
2022/07/18 06:37:21;;;;;;;7.97;2.83;;;18.80;97.40;;;;;;5005839;28;20138;-46
2022/07/18 06:39:46;;;;;;;6.65;3.17;;;19.00;96.60;;;;;;5042094;28;20034;-47
2022/07/18 06:42:12;;;;;;;4.55;2.70;;;19.10;96.30;;;;;;5007988;28;20158;-47
2022/07/18 06:44:37;;;;;;;8.00;3.08;;;19.30;95.90;;;;;;4986188;28;20491;-46
2022/07/18 06:47:03;;;;;;;4.95;2.30;;;19.50;95.40;;;;;;4988152;28;20031;-46
2022/07/18 06:49:28;;;;;;;5.72;2.70;;;19.70;95.30;;;;;;4987953;28;20176;-46
2022/07/18 06:51:54;;;;;;;3.20;2.47;;;19.90;94.60;;;;;;4988167;28;20121;-47
2022/07/18 06:54:20;;;;;;;7.20;2.90;;;20.20;93.80;;;;;;4987590;28;20045;-48
2022/07/18 06:56:45;;;;;;;14.40;2.78;;;20.60;92.90;;;;;;4988085;28;20058;-48
2022/07/18 06:59:11;;;;;;;5.00;2.72;;;20.80;91.90;;;;;;5025596;28;20056;-45
2022/07/18 07:01:36;;;;;;;3.67;2.40;;;20.90;91.80;;;;;;5004461;28;20106;-44
2022/07/18 07:04:02;;;;;;;7.07;2.20;;;21.00;91.80;;;;;;5009090;28;20544;-45
2022/07/18 07:06:28;;;;;;;8.02;2.30;;;21.20;90.80;;;;;;5010376;28;20540;-45
2022/07/18 07:08:53;;;;;;;4.78;2.22;;;21.50;90.80;;;;;;4987462;28;20090;-46
2022/07/18 07:11:21;;;;;;;3.80;2.50;;;21.70;89.80;;;;;;5001953;28;20042;-47
2022/07/18 07:13:47;;;;;;;3.30;2.00;;;21.70;88.60;;;;;;4986677;28;20054;-46
2022/07/18 07:16:12;;;;;;;8.85;2.30;;;21.90;88.40;;;;;;4986956;28;20057;-46
2022/07/18 07:18:38;;;;;;;5.60;2.15;;;22.00;86.90;;;;;;4987145;28;20272;-48
2022/07/18 07:21:05;;;;;;;4.03;1.80;;;22.20;86.00;;;;;;4995976;28;20038;-44
2022/07/18 07:23:30;;;;;;;5.97;2.55;;;22.50;85.50;;;;;;4986854;28;20076;-47
2022/07/18 07:25:56;;;;;;;8.23;2.42;;;22.80;84.60;;;;;;5014064;28;20032;-46
2022/07/18 07:28:21;;;;;;;6.07;1.83;;;23.00;82.30;;;;;;5013406;28;20041;-47
2022/07/18 07:30:47;;;;;;;4.95;2.20;;;23.00;81.40;;;;;;5015174;28;20090;-46
2022/07/18 07:33:12;;;;;;;5.75;2.40;;;23.10;81.70;;;;;;5021711;28;20535;-45
2022/07/18 07:35:38;;;;;;;4.93;2.28;;;23.30;82.90;;;;;;5080352;28;20024;-46
2022/07/18 07:38:03;;;;;;;7.50;2.47;;;23.70;80.10;;;;;;5020037;28;20026;-46
2022/07/18 07:40:29;;;;;;;4.70;2.03;;;23.90;80.40;;;;;;5010694;28;20030;-46
2022/07/18 07:43:06;;;;;;;4.57;2.13;;;23.70;76.00;;;;;;4985812;28;20066;-46
2022/07/18 07:45:32;;;;;;;6.57;2.13;;;23.70;76.60;;;;;;4991018;28;20026;-45
2022/07/18 07:47:59;;;;;;;3.70;1.95;;;23.80;75.80;;;;;;5004033;28;20084;-49
2022/07/18 07:50:24;;;;;;;5.20;2.20;;;23.90;76.20;;;;;;5023636;28;20039;-45
2022/07/18 07:52:50;;;;;;;2.72;1.55;;;24.10;73.90;;;;;;4988723;28;20400;-48
2022/07/18 07:55:15;;;;;;;6.22;1.88;;;24.20;73.80;;;;;;5004208;28;20418;-46
2022/07/18 07:57:41;;;;;;;5.82;2.03;;;24.40;72.50;;;;;;4985530;28;20122;-48
2022/07/18 08:00:08;;;;;;;5.78;1.92;;;24.80;71.30;;;;;;4991859;28;20034;-46
2022/07/18 08:02:34;;;;;;;3.65;1.80;;;24.80;71.40;;;;;;5001684;28;20030;-48
2022/07/18 08:05:00;;;;;;;3.20;1.83;;;24.80;70.20;;;;;;4984788;28;20256;-47
2022/07/18 08:07:25;;;;;;;4.40;1.90;;;25.00;68.70;;;;;;4987779;28;20064;-46
2022/07/18 08:09:51;;;;;;;6.97;2.10;;;25.20;69.20;;;;;;5028187;28;20464;-46
2022/07/18 08:12:16;;;;;;;4.35;1.88;;;25.60;69.40;;;;;;4986706;28;20677;-48
2022/07/18 08:14:42;;;;;;;4.82;2.30;;;26.00;66.40;;;;;;4985418;28;20091;-47
2022/07/18 08:17:08;;;;;;;6.60;2.15;;;25.90;62.50;;;;;;4986382;28;20058;-46
2022/07/18 08:19:33;;;;;;;8.05;2.08;;;25.70;63.60;;;;;;4986213;28;20034;-46
2022/07/18 08:22:00;;;;;;;3.50;1.60;;;25.70;62.90;;;;;;5004326;28;20382;-46
2022/07/18 08:24:26;;;;;;;3.25;1.48;;;25.60;62.40;;;;;;5036336;28;20028;-46
2022/07/18 08:26:51;;;;;;;3.10;1.80;;;25.60;63.20;;;;;;5040405;28;20501;-47
2022/07/18 08:29:17;;;;;;;5.75;1.85;;;25.90;63.10;;;;;;5028747;28;20424;-47
2022/07/18 08:31:43;;;;;;;5.78;1.90;;;26.00;62.80;;;;;;5011744;28;20472;-46
2022/07/18 08:34:08;;;;;;;5.35;2.78;;;26.50;63.50;;;;;;5002093;28;20030;-46
2022/07/18 08:36:34;;;;;;;5.45;1.90;;;26.90;62.00;;;;;;4986774;28;20031;-49
2022/07/18 08:38:59;;;;;;;4.57;1.88;;;27.50;60.90;;;;;;5005751;28;20074;-47
2022/07/18 08:41:27;;;;;;;4.03;1.80;;;27.60;57.80;;;;;;5005845;28;20030;-46
2022/07/18 08:43:53;;;;;;;2.88;1.90;;;28.60;57.70;;;;;;4984931;28;20677;-45
2022/07/18 08:46:21;;;;;;;5.85;1.67;;;29.90;57.00;;;;;;5009801;28;20500;-48
2022/07/18 08:48:47;;;;;;;2.70;1.80;;;30.90;52.30;;;;;;4985006;28;20034;-46
2022/07/18 08:51:13;;;;;;;3.40;1.73;;;31.60;50.20;;;;;;4991759;28;20379;-48
2022/07/18 08:53:40;;;;;;;5.18;1.60;;;32.20;50.10;;;;;;5017735;28;20043;-47
2022/07/18 08:56:06;;;;;;;7.05;1.70;;;32.70;48.10;;;;;;4988289;28;20026;-47
2022/07/18 08:58:32;;;;;;;3.65;1.90;;;33.30;47.70;;;;;;4993720;28;20032;-48
2022/07/18 09:00:58;;;;;;;5.40;1.88;;;34.20;47.30;;;;;;5000666;28;20053;-47
2022/07/18 09:03:24;;;;;;;3.40;1.83;;;34.70;45.80;;;;;;4988971;28;20476;-46
2022/07/18 09:06:13;;;;;;;7.65;1.73;;;35.40;45.30;;;;;;5036966;28;20026;-46
2022/07/18 09:08:56;;;;;;;4.88;2.22;;;35.30;43.60;;;;;;5000921;28;20059;-49
2022/07/18 09:11:22;;;;;;;4.47;2.10;;;35.20;44.90;;;;;;5051004;28;20051;-47
2022/07/18 09:13:47;;;;;;;3.63;1.80;;;34.80;43.90;;;;;;4995581;28;20035;-47
2022/07/18 09:16:14;;;;;;;3.20;1.70;;;34.50;44.30;;;;;;4991501;28;20092;-48
2022/07/18 09:18:44;;;;;;;2.75;1.50;;;35.20;43.50;;;;;;5007644;28;20033;-48
2022/07/18 09:21:19;;;;;;;3.58;2.10;;;35.30;43.90;;;;;;4999723;28;20022;-47
2022/07/18 09:23:50;;;;;;;4.50;2.40;;;35.10;41.50;;;;;;5024486;28;20063;-46
2022/07/18 09:26:39;;;;;;;5.13;2.58;;;35.10;42.00;;;;;;5059240;28;20028;-48
2022/07/18 09:29:04;;;;;;;2.40;2.20;;;34.90;41.60;;;;;;4978906;28;20079;-49
2022/07/18 09:31:30;;;;;;;3.97;2.03;;;35.60;41.90;;;;;;5002902;28;20034;-48
2022/07/18 09:33:58;;;;;;;5.13;2.40;;;35.60;41.00;;;;;;4991750;28;20033;-49
2022/07/18 09:36:25;;;;;;;5.00;2.42;;;35.40;41.10;;;;;;4988389;28;20023;-46
2022/07/18 09:38:51;;;;;;;4.93;2.08;;;35.70;40.70;;;;;;5012240;28;20023;-46
2022/07/18 09:41:22;;;;;;;4.05;2.20;;;35.20;40.90;;;;;;5029352;28;20018;-47
2022/07/18 09:43:48;;;;;;;3.88;2.20;;;35.60;40.50;;;;;;4991255;28;20411;-47
2022/07/18 09:46:13;;;;;;;4.72;2.47;;;35.00;42.10;;;;;;4994283;28;20025;-45
2022/07/18 09:48:39;;;;;;;2.78;2.25;;;34.40;41.40;;;;;;4997061;28;20041;-45
2022/07/18 09:51:06;;;;;;;4.10;2.47;;;32.70;44.00;;;;;;5042138;28;20036;-46
2022/07/18 09:53:35;;;;;;;4.88;2.40;;;33.10;43.90;;;;;;4987399;28;20122;-46
2022/07/18 09:56:06;;;;;;;3.78;2.45;;;33.90;43.40;;;;;;5012677;28;20265;-48
2022/07/18 09:58:35;;;;;;;6.72;2.25;;;33.60;42.40;;;;;;4990036;28;20424;-45
2022/07/18 10:01:03;;;;;;;5.32;2.38;;;33.60;41.90;;;;;;5040858;28;20018;-46
2022/07/18 10:03:29;;;;;;;4.05;2.67;;;33.50;42.30;;;;;;5001367;28;20034;-47
2022/07/18 10:05:57;;;;;;;6.90;2.55;;;33.90;43.50;;;;;;5091060;28;20583;-45
2022/07/18 10:08:26;;;;;;;5.68;3.47;;;34.70;42.70;;;;;;5019573;28;20069;-47
2022/07/18 10:10:53;;;;;;;5.30;2.33;;;34.20;42.30;;;;;;5019943;28;20113;-48
2022/07/18 10:13:21;;;;;;;2.60;2.30;;;34.40;42.70;;;;;;4995061;28;20030;-47
2022/07/18 10:15:50;;;;;;;3.95;2.63;;;34.70;42.20;;;;;;5006160;28;20018;-47
2022/07/18 10:18:18;;;;;;;5.13;2.42;;;35.00;41.90;;;;;;4988155;28;20263;-46
2022/07/18 10:21:03;;;;;;;4.00;2.15;;;35.20;41.60;;;;;;4988545;28;20026;-45
2022/07/18 10:23:43;;;;;;;2.95;2.28;;;35.60;41.20;;;;;;4988067;28;20019;-46
2022/07/18 10:26:14;;;;;;;2.60;2.15;;;36.00;40.90;;;;;;5026893;28;20028;-47
2022/07/18 10:28:55;;;;;;;3.97;2.40;;;35.80;41.10;;;;;;5003414;28;20064;-44
2022/07/18 10:31:22;;;;;;;7.32;2.70;;;35.50;41.90;;;;;;4988321;28;20034;-47
2022/07/18 10:33:48;;;;;;;4.30;2.35;;;35.40;42.10;;;;;;5039918;28;20036;-46
2022/07/18 10:36:21;;;;;;;3.20;2.05;;;35.90;42.40;;;;;;4990310;28;20549;-46
2022/07/18 10:39:08;;;;;;;2.65;2.10;;;37.00;40.90;;;;;;5051835;28;20102;-47
2022/07/18 10:42:02;;;;;;;6.85;2.60;;;37.50;39.60;;;;;;5090513;28;20028;-45
2022/07/18 10:44:31;;;;;;;5.93;2.25;;;37.90;39.20;;;;;;4986963;28;20041;-48
2022/07/18 10:47:02;;;;;;;2.20;2.00;;;36.70;39.70;;;;;;5000288;28;20038;-48
2022/07/18 10:52:25;;;;;;;5.20;2.42;;;36.20;40.00;;;;;;4968196;28;20435;-46
2022/07/18 10:55:21;;;;;;;2.90;1.80;;;37.00;39.50;;;;;;4989147;28;20071;-49
2022/07/18 10:57:49;;;;;;;2.78;2.13;;;37.40;39.30;;;;;;5012059;28;20026;-46
2022/07/18 11:00:27;;;;;;;3.20;1.95;;;38.00;39.30;;;;;;5024567;28;20038;-46
2022/07/18 11:03:05;;;;;;;4.30;1.83;;;38.70;38.00;;;;;;5012459;28;20412;-46
2022/07/18 11:05:32;;;;;;;3.20;1.90;;;38.80;38.10;;;;;;5019311;28;20084;-46
2022/07/18 11:08:00;;;;;;;2.65;1.58;;;38.30;38.40;;;;;;4998565;28;20418;-48
2022/07/18 11:10:41;;;;;;;3.72;1.85;;;38.10;37.90;;;;;;5041231;28;20038;-46
2022/07/18 11:13:26;;;;;;;4.68;1.75;;;37.90;38.40;;;;;;4993406;28;20420;-46
2022/07/18 11:16:12;;;;;;;4.20;2.10;;;37.40;38.20;;;;;;4987417;28;20082;-46
2022/07/18 11:18:40;;;;;;;3.70;2.00;;;36.60;40.20;;;;;;5044569;28;20016;-47
2022/07/18 11:21:26;;;;;;;3.35;2.35;;;37.40;38.60;;;;;;5088397;28;20457;-48
2022/07/18 11:23:59;;;;;;;5.30;2.05;;;37.30;39.30;;;;;;4989725;28;20407;-49
2022/07/18 11:26:25;;;;;;;3.25;1.80;;;36.90;39.20;;;;;;5037143;28;20030;-49
2022/07/18 11:29:05;;;;;;;3.15;1.80;;;37.30;39.70;;;;;;5011759;28;20366;-48
2022/07/18 11:31:43;;;;;;;3.17;2.08;;;37.50;38.40;;;;;;4981932;28;20034;-45
2022/07/18 11:34:08;;;;;;;2.53;1.58;;;37.10;39.60;;;;;;4995366;28;20030;-46
2022/07/18 11:36:34;;;;;;;3.78;1.77;;;36.50;39.70;;;;;;5013533;28;20046;-47
2022/07/18 11:39:02;;;;;;;2.08;1.83;;;36.10;40.20;;;;;;4986636;28;20142;-45
2022/07/18 11:41:29;;;;;;;6.40;1.90;;;36.10;39.10;;;;;;4991800;28;20714;-47
2022/07/18 11:43:55;;;;;;;2.63;1.45;;;36.80;38.90;;;;;;5018623;28;20026;-45
2022/07/18 11:46:26;;;;;;;5.47;1.73;;;37.80;38.20;;;;;;4999613;28;20586;-45
2022/07/18 11:49:05;;;;;;;3.55;1.52;;;37.60;37.60;;;;;;4989845;28;20018;-46
2022/07/18 11:51:40;;;;;;;4.28;2.20;;;37.10;38.70;;;;;;5020806;28;20390;-47
2022/07/18 11:54:06;;;;;;;2.00;1.70;;;37.10;39.00;;;;;;4985086;28;20046;-46
2022/07/18 11:56:31;;;;;;;4.05;1.75;;;37.50;38.40;;;;;;4985363;28;20041;-46
2022/07/18 11:58:58;;;;;;;3.28;1.50;;;36.60;37.90;;;;;;4986303;28;20049;-46
2022/07/18 12:01:33;;;;;;;3.92;2.10;;;37.60;38.10;;;;;;4985957;28;20419;-45
2022/07/18 12:04:27;;;;;;;2.40;1.90;;;37.60;37.40;;;;;;5010064;28;20035;-45
2022/07/18 12:07:12;;;;;;;3.33;1.75;;;37.60;37.60;;;;;;5029385;28;20031;-46
2022/07/18 12:09:38;;;;;;;3.75;2.05;;;37.30;39.10;;;;;;5016670;28;20074;-48
2022/07/18 12:12:14;;;;;;;5.22;1.85;;;36.80;39.50;;;;;;4986426;28;20057;-45
2022/07/18 12:14:41;;;;;;;2.53;1.58;;;35.90;37.60;;;;;;4986163;28;20527;-45
2022/07/18 12:17:07;;;;;;;3.08;1.63;;;36.00;38.50;;;;;;5036362;28;20029;-46
2022/07/18 12:19:35;;;;;;;6.70;1.90;;;35.80;40.20;;;;;;4986692;28;20027;-47
2022/07/18 12:22:09;;;;;;;3.20;2.10;;;35.70;39.00;;;;;;4985037;28;20313;-47
2022/07/18 12:24:49;;;;;;;2.78;2.25;;;35.40;40.00;;;;;;4998594;28;20025;-46
2022/07/18 12:27:31;;;;;;;3.72;2.30;;;35.50;39.20;;;;;;4989305;28;20392;-46
2022/07/18 12:30:13;;;;;;;4.53;1.77;;;35.30;40.00;;;;;;4967154;28;20031;-47
2022/07/18 12:32:42;;;;;;;2.75;1.90;;;34.30;40.00;;;;;;4987776;28;20030;-49
2022/07/18 12:35:11;;;;;;;3.97;1.92;;;33.50;40.60;;;;;;5062219;28;20072;-46
2022/07/18 12:37:37;;;;;;;4.00;2.03;;;33.60;40.60;;;;;;5039750;28;20557;-49
2022/07/18 12:40:07;;;;;;;3.15;1.80;;;33.90;41.00;;;;;;4990258;28;20018;-47
2022/07/18 12:42:36;;;;;;;6.60;1.77;;;34.10;40.70;;;;;;5038701;28;20483;-46
2022/07/18 12:45:03;;;;;;;3.28;2.30;;;33.30;40.50;;;;;;5040959;28;20051;-46
2022/07/18 12:47:29;;;;;;;2.97;1.88;;;32.70;41.10;;;;;;4986148;28;20022;-47
2022/07/18 12:49:54;;;;;;;2.42;1.70;;;32.80;41.30;;;;;;4990439;28;20029;-45
2022/07/18 12:52:20;;;;;;;2.10;1.75;;;32.90;41.80;;;;;;5006723;28;20038;-46
2022/07/18 12:54:47;;;;;;;2.85;1.85;;;33.00;40.60;;;;;;4998244;28;20029;-49
2022/07/18 12:57:13;;;;;;;2.05;1.85;;;32.70;40.40;;;;;;5039370;28;20018;-46